Time,TemperatureF,DewpointF,PressureIn,WindDirection,WindDirectionDegrees,WindSpeedMPH,WindSpeedGustMPH,Humidity,HourlyPrecipIn,Conditions,Clouds,dailyrainin,SoftwareType,DateUTC
2013-06-14 00:01:00,72.4,63.6,29.75,West,267,5.8,5.8,74,0.00,CLR,,0.00,WeatherDisplay:10.37,2013-06-14 04:01:00,
2013-06-14 00:06:00,70.3,64.2,29.73,WNW,288,0.0,0.0,81,0.00,CLR,,0.00,WeatherDisplay:10.37,2013-06-14 04:06:00,
2013-06-14 00:11:00,70.3,64.2,29.73,WNW,288,0.0,0.0,81,0.00,CLR,,0.00,WeatherDisplay:10.37,2013-06-14 04:11:00,
2013-06-14 00:16:00,70.3,64.2,29.73,WNW,288,0.0,0.0,81,0.00,CLR,,0.00,WeatherDisplay:10.37,2013-06-14 04:16:00,
2013-06-14 00:21:00,70.3,64.2,29.73,WNW,288,0.0,0.0,81,0.00,CLR,,0.00,WeatherDisplay:10.37,2013-06-14 04:21:00,
2013-06-14 00:26:00,70.3,64.2,29.73,WNW,288,0.0,0.0,81,0.00,CLR,,0.00,WeatherDisplay:10.37,2013-06-14 04:26:00,
2013-06-14 00:31:00,70.3,64.2,29.73,WNW,288,0.0,0.0,81,0.00,CLR,,0.00,WeatherDisplay:10.37,2013-06-14 04:31:00,
2013-06-14 00:36:00,70.3,64.2,29.73,WNW,288,0.0,0.0,81,0.00,CLR,,0.00,WeatherDisplay:10.37,2013-06-14 04:36:00,
2013-06-14 00:41:00,70.3,64.2,29.73,WNW,288,0.0,0.0,81,0.00,CLR,,0.00,WeatherDisplay:10.37,2013-06-14 04:41:00,
2013-06-14 00:46:00,73.6,64.4,29.77,NNW,338,6.2,10.4,73,0.00,CLR,,0.00,WeatherDisplay:10.37,2013-06-14 04:46:00,
2013-06-14 00:51:00,73.7,64.1,29.77,NW,304,4.6,7.6,72,0.00,CLR,,0.00,WeatherDisplay:10.37,2013-06-14 04:51:00,
2013-06-14 00:56:00,72.8,64.0,29.79,NNW,344,7.0,7.0,74,0.00,CLR,,0.00,WeatherDisplay:10.37,2013-06-14 04:56:00,
2013-06-14 01:01:00,72.8,64.0,29.79,NNW,346,6.3,9.2,74,0.00,CLR,,0.00,WeatherDisplay:10.37,2013-06-14 05:01:00,
2013-06-14 01:06:00,72.2,63.1,29.79,North,349,4.0,5.8,73,0.00,CLR,,0.00,WeatherDisplay:10.37,2013-06-14 05:06:00,
2013-06-14 01:11:00,72.1,63.0,29.79,NNW,340,5.5,9.2,73,0.00,CLR,,0.00,WeatherDisplay:10.37,2013-06-14 05:11:00,
2013-06-14 01:16:00,71.9,62.8,29.80,North,355,3.3,5.0,73,0.00,CLR,,0.00,WeatherDisplay:10.37,2013-06-14 05:16:00,
2013-06-14 01:21:00,72.3,63.2,29.79,NNW,342,5.8,6.0,73,0.00,CLR,,0.00,WeatherDisplay:10.37,2013-06-14 05:21:00,
2013-06-14 01:26:00,71.5,60.8,29.80,North,5,9.0,9.2,69,0.00,CLR,,0.00,WeatherDisplay:10.37,2013-06-14 05:26:00,
2013-06-14 01:31:00,71.4,59.9,29.80,North,10,4.7,6.9,67,0.00,CLR,,0.00,WeatherDisplay:10.37,2013-06-14 05:31:00,
2013-06-14 01:36:00,71.3,59.8,29.80,NE,41,3.0,5.8,67,0.00,CLR,,0.00,WeatherDisplay:10.37,2013-06-14 05:36:00,
2013-06-14 01:41:00,71.1,59.6,29.80,NNE,17,3.8,6.0,67,0.00,CLR,,0.00,WeatherDisplay:10.37,2013-06-14 05:41:00,
2013-06-14 01:46:00,70.9,59.0,29.80,North,350,1.7,4.0,66,0.00,CLR,,0.00,WeatherDisplay:10.37,2013-06-14 05:46:00,
2013-06-14 01:51:00,70.7,59.2,29.81,North,355,2.5,5.0,67,0.00,CLR,,0.00,WeatherDisplay:10.37,2013-06-14 05:51:00,
2013-06-14 01:56:00,70.5,59.0,29.81,NNW,346,4.1,5.8,67,0.00,CLR,,0.00,WeatherDisplay:10.37,2013-06-14 05:56:00,
2013-06-14 02:01:00,70.2,59.1,29.81,NNW,342,4.6,4.6,68,0.00,CLR,,0.00,WeatherDisplay:10.37,2013-06-14 06:01:00,
2013-06-14 02:06:00,70.0,59.4,29.81,North,349,4.6,4.6,69,0.00,CLR,,0.00,WeatherDisplay:10.37,2013-06-14 06:06:00,
2013-06-14 02:11:00,69.7,58.7,29.81,North,350,3.0,5.0,68,0.00,CLR,,0.00,WeatherDisplay:10.37,2013-06-14 06:11:00,
2013-06-14 02:16:00,69.5,58.1,29.81,North,355,4.6,4.6,67,0.00,CLR,,0.00,WeatherDisplay:10.37,2013-06-14 06:16:00,
2013-06-14 02:21:00,69.4,58.0,29.81,North,355,4.0,4.0,67,0.00,CLR,,0.00,WeatherDisplay:10.37,2013-06-14 06:21:00,
2013-06-14 02:26:00,69.2,58.2,29.81,NNW,348,4.6,4.6,68,0.00,CLR,,0.00,WeatherDisplay:10.37,2013-06-14 06:26:00,
2013-06-14 02:31:00,69.0,58.4,29.81,NNW,345,3.5,3.5,69,0.00,CLR,,0.00,WeatherDisplay:10.37,2013-06-14 06:31:00,
2013-06-14 02:36:00,68.6,57.6,29.81,NNW,347,6.9,6.9,68,0.00,CLR,,0.00,WeatherDisplay:10.37,2013-06-14 06:36:00,
2013-06-14 02:41:00,68.3,57.3,29.81,NNW,342,3.9,5.8,68,0.00,CLR,,0.00,WeatherDisplay:10.37,2013-06-14 06:41:00,
2013-06-14 02:46:00,68.5,57.5,29.81,North,355,4.6,4.7,68,0.00,CLR,,0.00,WeatherDisplay:10.37,2013-06-14 06:46:00,
2013-06-14 02:51:00,68.2,56.8,29.80,NNW,346,3.3,4.6,67,0.00,CLR,,0.00,WeatherDisplay:10.37,2013-06-14 06:51:00,
2013-06-14 02:56:00,68.0,56.6,29.80,NNW,331,4.6,4.6,67,0.00,CLR,,0.00,WeatherDisplay:10.37,2013-06-14 06:56:00,
2013-06-14 03:01:00,67.8,56.4,29.80,North,11,5.8,5.8,67,0.00,CLR,,0.00,WeatherDisplay:10.37,2013-06-14 07:01:00,
2013-06-14 03:06:00,68.2,56.8,29.80,NNW,346,3.3,4.6,67,0.00,CLR,,0.00,WeatherDisplay:10.37,2013-06-14 07:06:00,
2013-06-14 03:11:00,68.2,56.8,29.80,NNW,346,3.3,4.6,67,0.00,CLR,,0.00,WeatherDisplay:10.37,2013-06-14 07:11:00,
2013-06-14 03:16:00,67.3,56.4,29.80,NNW,347,2.3,3.9,68,0.00,CLR,,0.00,WeatherDisplay:10.37,2013-06-14 07:16:00,
2013-06-14 03:21:00,66.9,56.0,29.80,North,351,3.7,5.8,68,0.00,CLR,,0.00,WeatherDisplay:10.37,2013-06-14 07:21:00,
2013-06-14 03:26:00,66.7,55.8,29.80,NNW,348,6.9,6.9,68,0.00,CLR,,0.00,WeatherDisplay:10.37,2013-06-14 07:26:00,
2013-06-14 03:31:00,66.6,55.7,29.80,NNW,346,1.4,3.5,68,0.00,CLR,,0.00,WeatherDisplay:10.37,2013-06-14 07:31:00,
2013-06-14 03:36:00,66.5,55.6,29.79,NW,324,1.9,3.5,68,0.00,CLR,,0.00,WeatherDisplay:10.37,2013-06-14 07:36:00,
2013-06-14 03:41:00,66.4,55.5,29.80,NNW,348,2.3,2.3,68,0.00,CLR,,0.00,WeatherDisplay:10.37,2013-06-14 07:41:00,
2013-06-14 03:46:00,66.3,55.4,29.80,North,355,0.0,0.0,68,0.00,CLR,,0.00,WeatherDisplay:10.37,2013-06-14 07:46:00,
2013-06-14 03:51:00,66.2,55.3,29.80,North,355,0.0,0.0,68,0.00,CLR,,0.00,WeatherDisplay:10.37,2013-06-14 07:51:00,
2013-06-14 03:56:00,66.1,55.2,29.80,North,355,0.0,0.0,68,0.00,CLR,,0.00,WeatherDisplay:10.37,2013-06-14 07:56:00,
2013-06-14 04:01:00,66.1,55.2,29.80,North,355,0.0,0.0,68,0.00,CLR,,0.00,WeatherDisplay:10.37,2013-06-14 08:01:00,
2013-06-14 04:06:00,65.9,55.4,29.80,North,355,2.7,3.5,69,0.00,CLR,,0.00,WeatherDisplay:10.37,2013-06-14 08:06:00,
2013-06-14 04:11:00,65.9,55.4,29.80,North,355,0.0,0.0,69,0.00,CLR,,0.00,WeatherDisplay:10.37,2013-06-14 08:11:00,
2013-06-14 04:16:00,65.4,55.4,29.80,North,355,0.0,0.0,70,0.00,CLR,,0.00,WeatherDisplay:10.37,2013-06-14 08:16:00,
2013-06-14 04:21:00,65.9,55.4,29.80,North,355,0.0,0.0,69,0.00,CLR,,0.00,WeatherDisplay:10.37,2013-06-14 08:21:00,
2013-06-14 04:26:00,65.9,55.4,29.80,North,355,0.0,0.0,69,0.00,CLR,,0.00,WeatherDisplay:10.37,2013-06-14 08:26:00,
2013-06-14 04:31:00,64.7,55.1,29.80,NNW,331,0.0,0.0,71,0.00,CLR,,0.00,WeatherDisplay:10.37,2013-06-14 08:31:00,
2013-06-14 04:36:00,64.7,55.1,29.80,NNW,331,0.0,0.0,71,0.00,CLR,,0.00,WeatherDisplay:10.37,2013-06-14 08:36:00,
2013-06-14 04:41:00,64.5,54.9,29.80,NNW,331,0.0,0.0,71,0.00,CLR,,0.00,WeatherDisplay:10.37,2013-06-14 08:41:00,
2013-06-14 04:46:00,64.5,55.3,29.80,NNW,330,0.0,0.0,72,0.00,CLR,,0.00,WeatherDisplay:10.37,2013-06-14 08:46:00,
2013-06-14 04:51:00,64.4,55.2,29.80,WNW,302,0.0,0.0,72,0.00,CLR,,0.00,WeatherDisplay:10.37,2013-06-14 08:51:00,
2013-06-14 04:56:00,64.4,55.2,29.80,WNW,302,0.0,0.0,72,0.00,CLR,,0.00,WeatherDisplay:10.37,2013-06-14 08:56:00,
2013-06-14 05:01:00,64.4,55.2,29.80,WNW,302,0.0,0.0,72,0.00,CLR,,0.00,WeatherDisplay:10.37,2013-06-14 09:01:00,
2013-06-14 05:06:00,64.2,55.0,29.80,WNW,302,0.0,0.0,72,0.00,CLR,,0.00,WeatherDisplay:10.37,2013-06-14 09:06:00,
2013-06-14 05:11:00,64.2,55.4,29.80,WNW,302,0.0,0.0,73,0.00,CLR,,0.00,WeatherDisplay:10.37,2013-06-14 09:11:00,
2013-06-14 05:16:00,64.1,55.6,29.80,WNW,302,0.0,0.0,74,0.00,CLR,,0.00,WeatherDisplay:10.37,2013-06-14 09:16:00,
2013-06-14 05:21:00,64.4,55.2,29.80,WNW,302,0.0,0.0,72,0.00,CLR,,0.00,WeatherDisplay:10.37,2013-06-14 09:21:00,
2013-06-14 05:26:00,63.8,55.0,29.80,WNW,302,0.0,0.0,73,0.00,CLR,,0.00,WeatherDisplay:10.37,2013-06-14 09:26:00,
2013-06-14 05:31:00,63.9,55.4,29.80,WNW,302,0.0,0.0,74,0.00,CLR,,0.00,WeatherDisplay:10.37,2013-06-14 09:31:00,
2013-06-14 05:36:00,63.9,55.4,29.80,WNW,302,0.0,0.0,74,0.00,CLR,,0.00,WeatherDisplay:10.37,2013-06-14 09:36:00,
2013-06-14 05:41:00,63.5,55.1,29.81,WNW,302,0.0,0.0,74,0.00,CLR,,0.00,WeatherDisplay:10.37,2013-06-14 09:41:00,
2013-06-14 05:46:00,63.9,55.4,29.80,WNW,302,0.0,0.0,74,0.00,CLR,,0.00,WeatherDisplay:10.37,2013-06-14 09:46:00,
2013-06-14 05:51:00,63.9,55.4,29.80,WNW,302,0.0,0.0,74,0.00,CLR,,0.00,WeatherDisplay:10.37,2013-06-14 09:51:00,
2013-06-14 05:56:00,63.9,55.4,29.80,WNW,302,0.0,0.0,74,0.00,CLR,,0.00,WeatherDisplay:10.37,2013-06-14 09:56:00,
2013-06-14 06:01:00,63.9,55.4,29.80,WNW,302,0.0,0.0,74,0.00,CLR,,0.00,WeatherDisplay:10.37,2013-06-14 10:01:00,
2013-06-14 06:06:00,63.9,55.4,29.80,WNW,302,0.0,0.0,74,0.00,CLR,,0.00,WeatherDisplay:10.37,2013-06-14 10:06:00,
2013-06-14 06:11:00,63.1,55.8,29.83,South,169,3.5,3.5,77,0.00,CLR,,0.00,WeatherDisplay:10.37,2013-06-14 10:11:00,
2013-06-14 06:16:00,63.0,55.7,29.83,South,169,0.0,0.0,77,0.00,CLR,,0.00,WeatherDisplay:10.37,2013-06-14 10:16:00,
2013-06-14 06:21:00,62.9,55.6,29.83,SSE,168,0.0,0.0,77,0.00,CLR,,0.00,WeatherDisplay:10.37,2013-06-14 10:21:00,
2013-06-14 06:26:00,63.0,55.7,29.83,South,169,0.0,0.0,77,0.00,CLR,,0.00,WeatherDisplay:10.37,2013-06-14 10:26:00,
2013-06-14 06:31:00,62.7,55.7,29.83,SE,135,0.0,0.0,78,0.00,CLR,,0.00,WeatherDisplay:10.37,2013-06-14 10:31:00,
2013-06-14 06:36:00,62.6,56.0,29.84,SE,134,0.0,0.0,79,0.00,CLR,,0.00,WeatherDisplay:10.37,2013-06-14 10:36:00,
2013-06-14 06:41:00,62.6,56.0,29.84,SSW,196,2.0,2.3,79,0.00,CLR,,0.00,WeatherDisplay:10.37,2013-06-14 10:41:00,
2013-06-14 06:46:00,62.5,56.2,29.84,SW,219,1.8,2.3,80,0.00,CLR,,0.00,WeatherDisplay:10.37,2013-06-14 10:46:00,
2013-06-14 06:51:00,62.6,56.0,29.84,SE,135,0.0,0.0,79,0.00,CLR,,0.00,WeatherDisplay:10.37,2013-06-14 10:51:00,
2013-06-14 06:56:00,62.6,56.0,29.84,SE,135,0.0,0.0,79,0.00,CLR,,0.00,WeatherDisplay:10.37,2013-06-14 10:56:00,
2013-06-14 07:01:00,62.4,56.5,29.84,SW,219,0.1,1.2,81,0.00,CLR,,0.00,WeatherDisplay:10.37,2013-06-14 11:01:00,
2013-06-14 07:06:00,62.6,57.0,29.84,SW,224,0.1,2.3,82,0.00,CLR,,0.00,WeatherDisplay:10.37,2013-06-14 11:06:00,
2013-06-14 07:11:00,62.6,56.0,29.84,SE,135,0.0,0.0,79,0.00,CLR,,0.00,WeatherDisplay:10.37,2013-06-14 11:11:00,
2013-06-14 07:16:00,62.6,56.0,29.84,SE,135,0.0,0.0,79,0.00,CLR,,0.00,WeatherDisplay:10.37,2013-06-14 11:16:00,
2013-06-14 07:21:00,63.6,57.7,29.84,West,268,0.5,2.3,81,0.00,CLR,,0.00,WeatherDisplay:10.37,2013-06-14 11:21:00,
2013-06-14 07:26:00,63.6,57.7,29.84,West,268,0.5,2.3,81,0.00,CLR,,0.00,WeatherDisplay:10.37,2013-06-14 11:26:00,
2013-06-14 07:31:00,64.4,58.1,29.85,West,268,2.3,2.3,80,0.00,CLR,,0.00,WeatherDisplay:10.37,2013-06-14 11:31:00,
2013-06-14 07:36:00,63.6,57.7,29.84,West,268,0.5,2.3,81,0.00,CLR,,0.00,WeatherDisplay:10.37,2013-06-14 11:36:00,
2013-06-14 07:41:00,63.6,57.7,29.84,West,268,0.5,2.3,81,0.00,CLR,,0.00,WeatherDisplay:10.37,2013-06-14 11:41:00,
2013-06-14 07:46:00,65.4,58.7,29.85,West,267,0.0,0.0,79,0.00,CLR,,0.00,WeatherDisplay:10.37,2013-06-14 11:46:00,
2013-06-14 07:51:00,66.1,59.4,29.85,West,264,0.0,0.0,79,0.00,CLR,,0.00,WeatherDisplay:10.37,2013-06-14 11:51:00,
2013-06-14 07:56:00,65.4,58.7,29.85,West,267,0.0,0.0,79,0.00,CLR,,0.00,WeatherDisplay:10.37,2013-06-14 11:56:00,
2013-06-14 08:01:00,67.1,59.3,29.86,NW,318,0.0,0.0,76,0.00,CLR,,0.00,WeatherDisplay:10.37,2013-06-14 12:01:00,
2013-06-14 08:06:00,67.6,60.1,29.86,NW,304,0.0,0.0,77,0.00,CLR,,0.00,WeatherDisplay:10.37,2013-06-14 12:06:00,
2013-06-14 08:11:00,65.4,58.7,29.85,West,267,0.0,0.0,79,0.00,CLR,,0.00,WeatherDisplay:10.37,2013-06-14 12:11:00,
2013-06-14 08:16:00,65.4,58.7,29.85,West,267,0.0,0.0,79,0.00,CLR,,0.00,WeatherDisplay:10.37,2013-06-14 12:16:00,
2013-06-14 08:21:00,65.4,58.7,29.85,West,267,0.0,0.0,79,0.00,CLR,,0.00,WeatherDisplay:10.37,2013-06-14 12:21:00,
2013-06-14 08:26:00,65.4,58.7,29.85,West,267,0.0,0.0,79,0.00,CLR,,0.00,WeatherDisplay:10.37,2013-06-14 12:26:00,
2013-06-14 08:31:00,65.4,58.7,29.85,West,267,0.0,0.0,79,0.00,CLR,,0.00,WeatherDisplay:10.37,2013-06-14 12:31:00,
2013-06-14 08:36:00,70.4,60.5,29.87,NW,304,0.0,0.0,71,0.00,CLR,,0.00,WeatherDisplay:10.37,2013-06-14 12:36:00,
2013-06-14 08:41:00,70.8,60.9,29.87,North,355,7.0,7.0,71,0.00,CLR,,0.00,WeatherDisplay:10.37,2013-06-14 12:41:00,
2013-06-14 08:46:00,71.3,61.4,29.87,NNW,336,4.0,4.0,71,0.00,CLR,,0.00,WeatherDisplay:10.37,2013-06-14 12:46:00,
2013-06-14 08:51:00,71.6,60.5,29.87,NNW,342,6.9,6.9,68,0.00,CLR,,0.00,WeatherDisplay:10.37,2013-06-14 12:51:00,
2013-06-14 08:56:00,70.1,59.9,29.86,North,350,5.3,5.3,70,0.00,CLR,,0.00,WeatherDisplay:10.37,2013-06-14 12:56:00,
2013-06-14 09:01:00,70.1,59.9,29.86,North,350,5.3,5.3,70,0.00,CLR,,0.00,WeatherDisplay:10.37,2013-06-14 13:01:00,
2013-06-14 09:06:00,72.4,60.8,29.88,West,281,5.8,5.8,67,0.00,CLR,,0.00,WeatherDisplay:10.37,2013-06-14 13:06:00,
2013-06-14 09:11:00,70.1,59.9,29.86,North,350,5.3,5.3,70,0.00,CLR,,0.00,WeatherDisplay:10.37,2013-06-14 13:11:00,
2013-06-14 09:16:00,70.1,59.9,29.86,North,350,5.3,5.3,70,0.00,CLR,,0.00,WeatherDisplay:10.37,2013-06-14 13:16:00,
2013-06-14 09:21:00,73.0,61.8,29.88,WNW,303,9.2,9.2,68,0.00,CLR,,0.00,WeatherDisplay:10.37,2013-06-14 13:21:00,
2013-06-14 09:26:00,70.1,59.9,29.86,North,350,5.3,5.3,70,0.00,CLR,,0.00,WeatherDisplay:10.37,2013-06-14 13:26:00,
2013-06-14 09:31:00,73.1,59.8,29.88,NNW,333,5.5,6.9,63,0.00,CLR,,0.00,WeatherDisplay:10.37,2013-06-14 13:31:00,
2013-06-14 09:36:00,73.2,59.4,29.88,North,355,4.6,8.9,62,0.00,CLR,,0.00,WeatherDisplay:10.37,2013-06-14 13:36:00,
2013-06-14 09:41:00,73.7,60.8,29.89,NNW,333,1.0,7.0,64,0.00,CLR,,0.00,WeatherDisplay:10.37,2013-06-14 13:41:00,
2013-06-14 09:46:00,73.2,59.4,29.88,North,355,4.6,8.9,62,0.00,CLR,,0.00,WeatherDisplay:10.37,2013-06-14 13:46:00,
2013-06-14 09:51:00,74.0,59.7,29.89,NNW,329,12.7,12.7,61,0.00,CLR,,0.00,WeatherDisplay:10.37,2013-06-14 13:51:00,
2013-06-14 09:56:00,74.1,60.2,29.89,NNW,332,16.1,16.1,62,0.00,CLR,,0.00,WeatherDisplay:10.37,2013-06-14 13:56:00,
2013-06-14 10:01:00,74.3,60.0,29.89,NNW,348,6.9,6.9,61,0.00,CLR,,0.00,WeatherDisplay:10.37,2013-06-14 14:01:00,
2013-06-14 10:06:00,74.4,61.0,29.89,NNW,336,8.0,8.0,63,0.00,CLR,,0.00,WeatherDisplay:10.37,2013-06-14 14:06:00,
2013-06-14 10:11:00,74.5,60.2,29.89,North,355,3.5,4.9,61,0.00,CLR,,0.00,WeatherDisplay:10.37,2013-06-14 14:11:00,
2013-06-14 10:16:00,74.8,60.4,29.89,NNW,336,4.3,11.5,61,0.00,CLR,,0.00,WeatherDisplay:10.37,2013-06-14 14:16:00,
2013-06-14 10:21:00,74.8,58.5,29.89,North,360,5.8,9.4,57,0.00,CLR,,0.00,WeatherDisplay:10.37,2013-06-14 14:21:00,
2013-06-14 10:26:00,75.1,60.7,29.89,NNW,345,6.4,11.5,61,0.00,CLR,,0.00,WeatherDisplay:10.37,2013-06-14 14:26:00,
2013-06-14 10:31:00,75.3,59.0,29.89,NNW,344,9.2,12.7,57,0.00,CLR,,0.00,WeatherDisplay:10.37,2013-06-14 14:31:00,
2013-06-14 10:36:00,74.8,58.5,29.89,North,360,5.8,9.4,57,0.00,CLR,,0.00,WeatherDisplay:10.37,2013-06-14 14:36:00,
2013-06-14 10:41:00,74.8,58.5,29.89,North,360,5.8,9.4,57,0.00,CLR,,0.00,WeatherDisplay:10.37,2013-06-14 14:41:00,
2013-06-14 10:46:00,74.8,58.5,29.89,North,360,5.8,9.4,57,0.00,CLR,,0.00,WeatherDisplay:10.37,2013-06-14 14:46:00,
2013-06-14 10:51:00,76.1,58.8,29.89,NNE,13,5.6,13.8,55,0.00,CLR,,0.00,WeatherDisplay:10.37,2013-06-14 14:51:00,
2013-06-14 10:56:00,74.8,58.5,29.89,North,360,5.8,9.4,57,0.00,CLR,,0.00,WeatherDisplay:10.37,2013-06-14 14:56:00,
2013-06-14 11:01:00,76.4,59.5,29.89,NNW,340,7.1,7.1,56,0.00,CLR,,0.00,WeatherDisplay:10.37,2013-06-14 15:01:00,
2013-06-14 11:06:00,76.2,58.9,29.89,WNW,299,3.5,3.5,55,0.00,CLR,,0.00,WeatherDisplay:10.37,2013-06-14 15:06:00,
2013-06-14 11:11:00,76.6,58.7,29.89,NNW,337,4.9,12.7,54,0.00,CLR,,0.00,WeatherDisplay:10.37,2013-06-14 15:11:00,
2013-06-14 11:16:00,76.6,58.2,29.89,NNW,339,5.9,12.7,53,0.00,CLR,,0.00,WeatherDisplay:10.37,2013-06-14 15:16:00,
2013-06-14 11:21:00,76.7,58.3,29.90,NNW,338,5.1,9.2,53,0.00,CLR,,0.00,WeatherDisplay:10.37,2013-06-14 15:21:00,
2013-06-14 11:26:00,76.7,58.3,29.90,NNW,329,6.4,10.4,53,0.00,CLR,,0.00,WeatherDisplay:10.37,2013-06-14 15:26:00,
2013-06-14 11:31:00,76.7,58.3,29.90,NNW,329,6.4,10.4,53,0.00,CLR,,0.00,WeatherDisplay:10.37,2013-06-14 15:31:00,
2013-06-14 11:36:00,77.4,58.4,29.91,North,349,9.0,9.0,52,0.00,CLR,,0.00,WeatherDisplay:10.37,2013-06-14 15:36:00,
2013-06-14 11:41:00,76.7,58.3,29.90,NNW,329,6.4,10.4,53,0.00,CLR,,0.00,WeatherDisplay:10.37,2013-06-14 15:41:00,
2013-06-14 11:46:00,77.6,59.6,29.91,NW,307,3.1,10.4,54,0.00,CLR,,0.00,WeatherDisplay:10.37,2013-06-14 15:46:00,
2013-06-14 11:51:00,77.5,57.9,29.91,WNW,302,1.2,5.7,51,0.00,CLR,,0.00,WeatherDisplay:10.37,2013-06-14 15:51:00,
2013-06-14 11:56:00,77.8,57.7,29.90,NNW,342,5.8,11.5,50,0.00,CLR,,0.00,WeatherDisplay:10.37,2013-06-14 15:56:00,
2013-06-14 12:01:00,77.5,57.9,29.91,WNW,302,1.2,5.7,51,0.00,CLR,,0.00,WeatherDisplay:10.37,2013-06-14 16:01:00,
2013-06-14 12:06:00,78.2,58.6,29.90,North,360,4.9,8.1,51,0.00,CLR,,0.00,WeatherDisplay:10.37,2013-06-14 16:06:00,
2013-06-14 12:11:00,78.3,58.1,29.90,NW,311,4.0,4.8,50,0.00,CLR,,0.00,WeatherDisplay:10.37,2013-06-14 16:11:00,
2013-06-14 12:16:00,78.3,58.1,29.90,NW,325,9.2,9.2,50,0.00,CLR,,0.00,WeatherDisplay:10.37,2013-06-14 16:16:00,
2013-06-14 12:21:00,78.3,58.1,29.90,NNW,337,5.2,13.8,50,0.00,CLR,,0.00,WeatherDisplay:10.37,2013-06-14 16:21:00,
2013-06-14 12:26:00,78.7,60.1,29.90,North,9,12.7,12.7,53,0.00,CLR,,0.00,WeatherDisplay:10.37,2013-06-14 16:26:00,
2013-06-14 12:31:00,78.3,58.1,29.90,NNW,337,5.2,13.8,50,0.00,CLR,,0.00,WeatherDisplay:10.37,2013-06-14 16:31:00,
2013-06-14 12:36:00,78.3,58.1,29.90,NNW,337,5.2,13.8,50,0.00,CLR,,0.00,WeatherDisplay:10.37,2013-06-14 16:36:00,
2013-06-14 12:41:00,79.2,56.0,29.90,NNW,342,11.5,11.5,45,0.00,CLR,,0.00,WeatherDisplay:10.37,2013-06-14 16:41:00,
2013-06-14 12:46:00,79.1,55.9,29.90,NE,44,3.5,9.0,45,0.00,CLR,,0.00,WeatherDisplay:10.37,2013-06-14 16:46:00,
2013-06-14 12:51:00,79.2,57.2,29.90,NNW,347,4.6,5.2,47,0.00,CLR,,0.00,WeatherDisplay:10.37,2013-06-14 16:51:00,
2013-06-14 12:56:00,79.2,57.8,29.90,NE,34,10.4,10.4,48,0.00,CLR,,0.00,WeatherDisplay:10.37,2013-06-14 16:56:00,
2013-06-14 13:01:00,79.2,57.8,29.90,NE,34,10.4,10.4,48,0.00,CLR,,0.00,WeatherDisplay:10.37,2013-06-14 17:01:00,
2013-06-14 13:06:00,79.5,56.3,29.91,NE,47,8.9,11.5,45,0.00,CLR,,0.00,WeatherDisplay:10.37,2013-06-14 17:06:00,
2013-06-14 13:11:00,79.6,56.4,29.91,NNW,329,12.7,12.7,45,0.00,CLR,,0.00,WeatherDisplay:10.37,2013-06-14 17:11:00,
2013-06-14 13:16:00,79.7,56.5,29.91,North,355,15.0,15.0,45,0.00,CLR,,0.00,WeatherDisplay:10.37,2013-06-14 17:16:00,
2013-06-14 13:21:00,79.5,56.3,29.91,NE,47,8.9,11.5,45,0.00,CLR,,0.00,WeatherDisplay:10.37,2013-06-14 17:21:00,
2013-06-14 13:26:00,79.5,56.3,29.91,NE,47,8.9,11.5,45,0.00,CLR,,0.00,WeatherDisplay:10.37,2013-06-14 17:26:00,
2013-06-14 13:31:00,79.5,56.3,29.91,NE,47,8.9,11.5,45,0.00,CLR,,0.00,WeatherDisplay:10.37,2013-06-14 17:31:00,
2013-06-14 13:36:00,79.5,56.3,29.91,NE,47,8.9,11.5,45,0.00,CLR,,0.00,WeatherDisplay:10.37,2013-06-14 17:36:00,
2013-06-14 13:41:00,79.5,56.3,29.91,NE,47,8.9,11.5,45,0.00,CLR,,0.00,WeatherDisplay:10.37,2013-06-14 17:41:00,
2013-06-14 13:46:00,79.5,56.3,29.91,NE,47,8.9,11.5,45,0.00,CLR,,0.00,WeatherDisplay:10.37,2013-06-14 17:46:00,
2013-06-14 13:51:00,79.5,56.3,29.91,NE,47,8.9,11.5,45,0.00,CLR,,0.00,WeatherDisplay:10.37,2013-06-14 17:51:00,
2013-06-14 13:56:00,79.5,56.3,29.91,NE,47,8.9,11.5,45,0.00,CLR,,0.00,WeatherDisplay:10.37,2013-06-14 17:56:00,
2013-06-14 14:01:00,79.5,56.3,29.91,NE,47,8.9,11.5,45,0.00,CLR,,0.00,WeatherDisplay:10.37,2013-06-14 18:01:00,
2013-06-14 14:06:00,80.9,56.9,29.91,NNW,344,10.4,10.4,44,0.00,CLR,,0.00,WeatherDisplay:10.37,2013-06-14 18:06:00,
2013-06-14 14:11:00,80.9,58.2,29.91,North,360,12.7,12.7,46,0.00,CLR,,0.00,WeatherDisplay:10.37,2013-06-14 18:11:00,
2013-06-14 14:16:00,81.0,57.0,29.91,North,355,9.9,11.5,44,0.00,CLR,,0.00,WeatherDisplay:10.37,2013-06-14 18:16:00,
2013-06-14 14:21:00,80.9,58.2,29.91,North,5,4.6,4.6,46,0.00,CLR,,0.00,WeatherDisplay:10.37,2013-06-14 18:21:00,
2013-06-14 14:26:00,80.9,58.2,29.91,North,5,4.6,4.6,46,0.00,CLR,,0.00,WeatherDisplay:10.37,2013-06-14 18:26:00,
2013-06-14 14:31:00,80.7,56.8,29.91,North,350,7.3,7.3,44,0.00,CLR,,0.00,WeatherDisplay:10.37,2013-06-14 18:31:00,
2013-06-14 14:36:00,80.9,58.2,29.91,North,5,4.6,4.6,46,0.00,CLR,,0.00,WeatherDisplay:10.37,2013-06-14 18:36:00,
2013-06-14 14:41:00,80.9,58.2,29.91,North,5,4.6,4.6,46,0.00,CLR,,0.00,WeatherDisplay:10.37,2013-06-14 18:41:00,
2013-06-14 14:46:00,80.9,58.2,29.91,North,5,4.6,4.6,46,0.00,CLR,,0.00,WeatherDisplay:10.37,2013-06-14 18:46:00,
2013-06-14 14:51:00,81.0,57.7,29.91,NE,34,7.3,11.5,45,0.00,CLR,,0.00,WeatherDisplay:10.37,2013-06-14 18:51:00,
2013-06-14 14:56:00,80.9,58.2,29.91,North,5,4.6,4.6,46,0.00,CLR,,0.00,WeatherDisplay:10.37,2013-06-14 18:56:00,
2013-06-14 15:01:00,81.1,57.7,29.91,NNE,15,7.8,11.5,45,0.00,CLR,,0.00,WeatherDisplay:10.37,2013-06-14 19:01:00,
2013-06-14 15:06:00,80.9,56.9,29.92,NE,53,9.0,13.8,44,0.00,CLR,,0.00,WeatherDisplay:10.37,2013-06-14 19:06:00,
2013-06-14 15:11:00,80.9,58.2,29.91,North,5,4.6,4.6,46,0.00,CLR,,0.00,WeatherDisplay:10.37,2013-06-14 19:11:00,
2013-06-14 15:16:00,80.6,57.9,29.91,NNW,346,4.9,11.5,46,0.00,CLR,,0.00,WeatherDisplay:10.37,2013-06-14 19:16:00,
2013-06-14 15:21:00,81.0,59.5,29.91,North,11,3.0,11.5,48,0.00,CLR,,0.00,WeatherDisplay:10.37,2013-06-14 19:21:00,
2013-06-14 15:26:00,81.2,57.8,29.92,NNE,33,9.3,11.5,45,0.00,CLR,,0.00,WeatherDisplay:10.37,2013-06-14 19:26:00,
2013-06-14 15:31:00,80.9,58.2,29.91,North,5,4.6,4.6,46,0.00,CLR,,0.00,WeatherDisplay:10.37,2013-06-14 19:31:00,
2013-06-14 15:36:00,80.9,58.2,29.91,North,5,4.6,4.6,46,0.00,CLR,,0.00,WeatherDisplay:10.37,2013-06-14 19:36:00,
2013-06-14 15:41:00,81.1,58.4,29.92,ENE,59,5.9,10.4,46,0.00,CLR,,0.00,WeatherDisplay:10.37,2013-06-14 19:41:00,
2013-06-14 15:46:00,80.9,58.2,29.91,North,5,4.6,4.6,46,0.00,CLR,,0.00,WeatherDisplay:10.37,2013-06-14 19:46:00,
2013-06-14 15:51:00,80.9,58.2,29.91,North,5,4.6,4.6,46,0.00,CLR,,0.00,WeatherDisplay:10.37,2013-06-14 19:51:00,
2013-06-14 15:56:00,80.9,58.8,29.92,North,350,1.4,11.5,47,0.00,CLR,,0.00,WeatherDisplay:10.37,2013-06-14 19:56:00,
2013-06-14 16:01:00,80.9,58.2,29.91,North,5,4.6,4.6,46,0.00,CLR,,0.00,WeatherDisplay:10.37,2013-06-14 20:01:00,
2013-06-14 16:06:00,80.9,58.2,29.91,North,5,4.6,4.6,46,0.00,CLR,,0.00,WeatherDisplay:10.37,2013-06-14 20:06:00,
2013-06-14 16:11:00,80.9,58.2,29.91,North,5,4.6,4.6,46,0.00,CLR,,0.00,WeatherDisplay:10.37,2013-06-14 20:11:00,
2013-06-14 16:16:00,80.9,58.2,29.91,North,5,4.6,4.6,46,0.00,CLR,,0.00,WeatherDisplay:10.37,2013-06-14 20:16:00,
2013-06-14 16:21:00,81.7,59.5,29.91,NNE,18,6.1,9.0,47,0.00,CLR,,0.00,WeatherDisplay:10.37,2013-06-14 20:21:00,
2013-06-14 16:26:00,80.9,58.2,29.91,North,5,4.6,4.6,46,0.00,CLR,,0.00,WeatherDisplay:10.37,2013-06-14 20:26:00,
2013-06-14 16:31:00,80.9,58.2,29.91,North,5,4.6,4.6,46,0.00,CLR,,0.00,WeatherDisplay:10.37,2013-06-14 20:31:00,
2013-06-14 16:36:00,81.6,56.9,29.91,ENE,57,6.9,12.7,43,0.00,CLR,,0.00,WeatherDisplay:10.37,2013-06-14 20:36:00,
2013-06-14 16:41:00,81.2,57.8,29.91,NNW,338,3.5,6.9,45,0.00,CLR,,0.00,WeatherDisplay:10.37,2013-06-14 20:41:00,
2013-06-14 16:46:00,80.9,58.2,29.91,North,5,4.6,4.6,46,0.00,CLR,,0.00,WeatherDisplay:10.37,2013-06-14 20:46:00,
2013-06-14 16:51:00,80.9,57.6,29.91,NNW,331,5.7,11.5,45,0.00,CLR,,0.00,WeatherDisplay:10.37,2013-06-14 20:51:00,
2013-06-14 16:56:00,81.1,57.1,29.92,NNE,19,6.5,9.2,44,0.00,CLR,,0.00,WeatherDisplay:10.37,2013-06-14 20:56:00,
2013-06-14 17:01:00,80.9,58.2,29.91,North,5,4.6,4.6,46,0.00,CLR,,0.00,WeatherDisplay:10.37,2013-06-14 21:01:00,
2013-06-14 17:06:00,80.9,58.2,29.91,North,5,4.6,4.6,46,0.00,CLR,,0.00,WeatherDisplay:10.37,2013-06-14 21:06:00,
2013-06-14 17:11:00,80.9,58.2,29.91,North,5,4.6,4.6,46,0.00,CLR,,0.00,WeatherDisplay:10.37,2013-06-14 21:11:00,
2013-06-14 17:16:00,81.2,55.3,29.92,NNW,336,6.9,11.5,41,0.00,CLR,,0.00,WeatherDisplay:10.37,2013-06-14 21:16:00,
2013-06-14 17:21:00,81.2,56.6,29.92,NNW,338,7.6,11.5,43,0.00,CLR,,0.00,WeatherDisplay:10.37,2013-06-14 21:21:00,
2013-06-14 17:26:00,81.3,56.0,29.92,North,10,13.8,13.8,42,0.00,CLR,,0.00,WeatherDisplay:10.37,2013-06-14 21:26:00,
2013-06-14 17:31:00,81.2,56.6,29.92,NNW,338,7.6,7.6,43,0.00,CLR,,0.00,WeatherDisplay:10.37,2013-06-14 21:31:00,
2013-06-14 17:36:00,81.2,56.6,29.92,NNW,338,7.6,7.6,43,0.00,CLR,,0.00,WeatherDisplay:10.37,2013-06-14 21:36:00,
2013-06-14 17:41:00,81.2,56.6,29.92,NNW,338,7.6,7.6,43,0.00,CLR,,0.00,WeatherDisplay:10.37,2013-06-14 21:41:00,
2013-06-14 17:46:00,81.2,56.6,29.92,NNW,338,7.6,7.6,43,0.00,CLR,,0.00,WeatherDisplay:10.37,2013-06-14 21:46:00,
2013-06-14 17:51:00,81.0,55.7,29.92,NNE,15,3.3,3.5,42,0.00,CLR,,0.00,WeatherDisplay:10.37,2013-06-14 21:51:00,
2013-06-14 17:56:00,81.0,56.4,29.92,North,11,3.5,5.2,43,0.00,CLR,,0.00,WeatherDisplay:10.37,2013-06-14 21:56:00,
2013-06-14 18:01:00,81.0,56.4,29.92,North,11,3.5,5.2,43,0.00,CLR,,0.00,WeatherDisplay:10.37,2013-06-14 22:01:00,
2013-06-14 18:06:00,81.0,56.4,29.92,North,11,3.5,5.2,43,0.00,CLR,,0.00,WeatherDisplay:10.37,2013-06-14 22:06:00,
2013-06-14 18:11:00,81.0,56.4,29.92,North,11,3.5,5.2,43,0.00,CLR,,0.00,WeatherDisplay:10.37,2013-06-14 22:11:00,
2013-06-14 18:16:00,80.4,57.1,29.92,North,349,9.2,9.2,45,0.00,CLR,,0.00,WeatherDisplay:10.37,2013-06-14 22:16:00,
2013-06-14 18:21:00,80.2,56.9,29.92,NNW,334,10.4,10.4,45,0.00,CLR,,0.00,WeatherDisplay:10.37,2013-06-14 22:21:00,
2013-06-14 18:26:00,80.5,57.2,29.92,North,9,3.6,5.8,45,0.00,CLR,,0.00,WeatherDisplay:10.37,2013-06-14 22:26:00,
2013-06-14 18:31:00,80.5,57.2,29.92,North,9,3.6,5.8,45,0.00,CLR,,0.00,WeatherDisplay:10.37,2013-06-14 22:31:00,
2013-06-14 18:36:00,80.5,57.2,29.92,North,9,3.6,5.8,45,0.00,CLR,,0.00,WeatherDisplay:10.37,2013-06-14 22:36:00,
2013-06-14 18:41:00,80.5,57.2,29.92,North,9,3.6,5.8,45,0.00,CLR,,0.00,WeatherDisplay:10.37,2013-06-14 22:41:00,
2013-06-14 18:46:00,80.5,57.2,29.92,North,9,3.6,5.8,45,0.00,CLR,,0.00,WeatherDisplay:10.37,2013-06-14 22:46:00,
2013-06-14 18:51:00,79.9,57.3,29.93,NNE,25,2.0,2.0,46,0.00,CLR,,0.00,WeatherDisplay:10.37,2013-06-14 22:51:00,
2013-06-14 18:56:00,79.7,58.3,29.93,North,9,4.6,4.6,48,0.00,CLR,,0.00,WeatherDisplay:10.37,2013-06-14 22:56:00,
2013-06-14 19:01:00,80.5,57.2,29.92,North,9,3.6,5.8,45,0.00,CLR,,0.00,WeatherDisplay:10.37,2013-06-14 23:01:00,
2013-06-14 19:06:00,80.5,57.2,29.92,North,9,3.6,5.8,45,0.00,CLR,,0.00,WeatherDisplay:10.37,2013-06-14 23:06:00,
2013-06-14 19:11:00,79.1,58.3,29.93,NNE,27,3.5,3.5,49,0.00,CLR,,0.00,WeatherDisplay:10.37,2013-06-14 23:11:00,
2013-06-14 19:16:00,79.0,58.2,29.93,NNE,30,0.0,0.0,49,0.00,CLR,,0.00,WeatherDisplay:10.37,2013-06-14 23:16:00,
2013-06-14 19:21:00,79.0,58.2,29.93,NNE,30,0.0,0.0,49,0.00,CLR,,0.00,WeatherDisplay:10.37,2013-06-14 23:21:00,
2013-06-14 19:26:00,79.0,58.2,29.93,NNE,30,0.0,0.0,49,0.00,CLR,,0.00,WeatherDisplay:10.37,2013-06-14 23:26:00,
2013-06-14 19:31:00,79.0,58.2,29.93,NNE,30,0.0,0.0,49,0.00,CLR,,0.00,WeatherDisplay:10.37,2013-06-14 23:31:00,
2013-06-14 19:36:00,79.0,58.2,29.93,NNE,30,0.0,0.0,49,0.00,CLR,,0.00,WeatherDisplay:10.37,2013-06-14 23:36:00,
2013-06-14 19:41:00,77.5,57.4,29.94,NNE,15,1.2,0.0,50,0.00,CLR,,0.00,WeatherDisplay:10.37,2013-06-14 23:41:00,
2013-06-14 19:46:00,77.5,57.4,29.94,NNE,15,0.0,0.0,50,0.00,CLR,,0.00,WeatherDisplay:10.37,2013-06-14 23:46:00,
2013-06-14 19:51:00,77.5,57.4,29.94,NNE,15,0.0,0.0,50,0.00,CLR,,0.00,WeatherDisplay:10.37,2013-06-14 23:51:00,
2013-06-14 19:56:00,77.1,58.1,29.95,NNE,14,0.1,0.0,52,0.00,CLR,,0.00,WeatherDisplay:10.37,2013-06-14 23:56:00,
2013-06-14 20:01:00,76.9,58.5,29.95,East,80,0.0,0.0,53,0.00,CLR,,0.00,WeatherDisplay:10.37,2013-06-15 00:01:00,
2013-06-14 20:06:00,76.7,58.3,29.95,East,79,1.2,0.0,53,0.00,CLR,,0.00,WeatherDisplay:10.37,2013-06-15 00:06:00,
2013-06-14 20:11:00,76.5,58.1,29.95,ENE,69,3.5,3.5,53,0.00,CLR,,0.00,WeatherDisplay:10.37,2013-06-15 00:11:00,
2013-06-14 20:16:00,77.1,58.1,29.95,NNE,14,0.1,0.0,52,0.00,CLR,,0.00,WeatherDisplay:10.37,2013-06-15 00:16:00,
2013-06-14 20:21:00,75.9,57.5,29.95,ENE,69,0.0,0.0,53,0.00,CLR,,0.00,WeatherDisplay:10.37,2013-06-15 00:21:00,
2013-06-14 20:26:00,75.9,57.5,29.95,ENE,69,0.0,0.0,53,0.00,CLR,,0.00,WeatherDisplay:10.37,2013-06-15 00:26:00,
2013-06-14 20:31:00,75.9,57.5,29.95,ENE,69,0.0,0.0,53,0.00,CLR,,0.00,WeatherDisplay:10.37,2013-06-15 00:31:00,
2013-06-14 20:36:00,75.9,57.5,29.95,ENE,69,0.0,0.0,53,0.00,CLR,,0.00,WeatherDisplay:10.37,2013-06-15 00:36:00,
2013-06-14 20:41:00,74.9,57.1,29.95,SSW,195,0.0,0.0,54,0.00,CLR,,0.00,WeatherDisplay:10.37,2013-06-15 00:41:00,
2013-06-14 20:46:00,74.5,57.3,29.95,SSW,195,0.0,0.0,55,0.00,CLR,,0.00,WeatherDisplay:10.37,2013-06-15 00:46:00,
2013-06-14 20:51:00,74.8,57.0,29.95,SSW,195,0.0,0.0,54,0.00,CLR,,0.00,WeatherDisplay:10.37,2013-06-15 00:51:00,
2013-06-14 20:56:00,74.8,57.0,29.95,SSW,195,0.0,0.0,54,0.00,CLR,,0.00,WeatherDisplay:10.37,2013-06-15 00:56:00,
2013-06-14 21:01:00,74.8,57.0,29.95,SSW,195,0.0,0.0,54,0.00,CLR,,0.00,WeatherDisplay:10.37,2013-06-15 01:01:00,
2013-06-14 21:06:00,74.8,57.0,29.95,SSW,195,0.0,0.0,54,0.00,CLR,,0.00,WeatherDisplay:10.37,2013-06-15 01:06:00,
2013-06-14 21:11:00,71.8,58.1,29.96,SSW,195,0.0,0.0,62,0.00,CLR,,0.00,WeatherDisplay:10.37,2013-06-15 01:11:00,
2013-06-14 21:16:00,74.8,57.0,29.95,SSW,195,0.0,0.0,54,0.00,CLR,,0.00,WeatherDisplay:10.37,2013-06-15 01:16:00,
2013-06-14 21:21:00,74.8,57.0,29.95,SSW,195,0.0,0.0,54,0.00,CLR,,0.00,WeatherDisplay:10.37,2013-06-15 01:21:00,
2013-06-14 21:26:00,70.8,57.6,29.97,SSW,195,0.0,0.0,63,0.00,CLR,,0.00,WeatherDisplay:10.37,2013-06-15 01:26:00,
2013-06-14 21:31:00,74.8,57.0,29.95,SSW,195,0.0,0.0,54,0.00,CLR,,0.00,WeatherDisplay:10.37,2013-06-15 01:31:00,
2013-06-14 21:36:00,70.1,58.2,29.97,SSW,195,0.0,0.0,66,0.00,CLR,,0.00,WeatherDisplay:10.37,2013-06-15 01:36:00,
2013-06-14 21:41:00,70.4,58.1,29.97,SSW,195,0.0,0.0,65,0.00,CLR,,0.00,WeatherDisplay:10.37,2013-06-15 01:41:00,
2013-06-14 21:46:00,70.4,58.1,29.97,SSW,195,0.0,0.0,65,0.00,CLR,,0.00,WeatherDisplay:10.37,2013-06-15 01:46:00,
2013-06-14 21:51:00,68.9,57.5,29.98,SSW,195,0.0,0.0,67,0.00,CLR,,0.00,WeatherDisplay:10.37,2013-06-15 01:51:00,
2013-06-14 21:56:00,70.4,58.1,29.97,SSW,195,0.0,0.0,65,0.00,CLR,,0.00,WeatherDisplay:10.37,2013-06-15 01:56:00,
2013-06-14 22:01:00,68.4,57.8,29.98,SSW,195,0.0,0.0,69,0.00,CLR,,0.00,WeatherDisplay:10.37,2013-06-15 02:01:00,
2013-06-14 22:06:00,70.4,58.1,29.97,SSW,195,0.0,0.0,65,0.00,CLR,,0.00,WeatherDisplay:10.37,2013-06-15 02:06:00,
2013-06-14 22:11:00,70.4,58.1,29.97,SSW,195,0.0,0.0,65,0.00,CLR,,0.00,WeatherDisplay:10.37,2013-06-15 02:11:00,
2013-06-14 22:16:00,66.9,57.6,29.99,SSW,195,0.0,0.0,72,0.00,CLR,,0.00,WeatherDisplay:10.37,2013-06-15 02:16:00,
2013-06-14 22:21:00,66.7,57.0,29.99,SSW,195,0.0,0.0,71,0.00,CLR,,0.00,WeatherDisplay:10.37,2013-06-15 02:21:00,
2013-06-14 22:26:00,66.6,56.9,29.99,SSW,195,0.0,0.0,71,0.00,CLR,,0.00,WeatherDisplay:10.37,2013-06-15 02:26:00,
2013-06-14 22:31:00,70.4,58.1,29.97,SSW,195,0.0,0.0,65,0.00,CLR,,0.00,WeatherDisplay:10.37,2013-06-15 02:31:00,
2013-06-14 22:36:00,66.2,57.7,29.99,SSW,195,0.0,0.0,74,0.00,CLR,,0.00,WeatherDisplay:10.37,2013-06-15 02:36:00,
2013-06-14 22:41:00,70.4,58.1,29.97,SSW,195,0.0,0.0,65,0.00,CLR,,0.00,WeatherDisplay:10.37,2013-06-15 02:41:00,
2013-06-14 22:46:00,70.4,58.1,29.97,SSW,195,0.0,0.0,65,0.00,CLR,,0.00,WeatherDisplay:10.37,2013-06-15 02:46:00,
2013-06-14 22:51:00,70.4,58.1,29.97,SSW,195,0.0,0.0,65,0.00,CLR,,0.00,WeatherDisplay:10.37,2013-06-15 02:51:00,
2013-06-14 22:56:00,66.1,57.6,30.00,SSW,195,0.0,0.0,74,0.00,CLR,,0.00,WeatherDisplay:10.37,2013-06-15 02:56:00,
2013-06-14 23:01:00,70.4,58.1,29.97,SSW,195,0.0,0.0,65,0.00,CLR,,0.00,WeatherDisplay:10.37,2013-06-15 03:01:00,
2013-06-14 23:06:00,70.4,58.1,29.97,SSW,195,0.0,0.0,65,0.00,CLR,,0.00,WeatherDisplay:10.37,2013-06-15 03:06:00,
2013-06-14 23:11:00,70.4,58.1,29.97,SSW,195,0.0,0.0,65,0.00,CLR,,0.00,WeatherDisplay:10.37,2013-06-15 03:11:00,
2013-06-14 23:16:00,65.9,57.4,30.01,SSW,195,0.0,0.0,74,0.00,CLR,,0.00,WeatherDisplay:10.37,2013-06-15 03:16:00,
2013-06-14 23:21:00,65.8,56.9,30.01,SSW,195,0.0,0.0,73,0.00,CLR,,0.00,WeatherDisplay:10.37,2013-06-15 03:21:00,
2013-06-14 23:26:00,65.7,56.8,30.01,SSW,195,0.0,0.0,73,0.00,CLR,,0.00,WeatherDisplay:10.37,2013-06-15 03:26:00,
2013-06-14 23:31:00,65.6,57.1,30.01,SSW,195,0.0,0.0,74,0.00,CLR,,0.00,WeatherDisplay:10.37,2013-06-15 03:31:00,
2013-06-14 23:36:00,65.3,57.5,30.02,SSW,195,0.0,0.0,76,0.00,CLR,,0.00,WeatherDisplay:10.37,2013-06-15 03:36:00,
2013-06-14 23:41:00,65.0,57.2,30.02,SSW,195,0.0,0.0,76,0.00,CLR,,0.00,WeatherDisplay:10.37,2013-06-15 03:41:00,
2013-06-14 23:46:00,64.8,57.4,30.02,SSW,195,0.0,0.0,77,0.00,CLR,,0.00,WeatherDisplay:10.37,2013-06-15 03:46:00,
2013-06-14 23:51:00,64.5,57.1,30.02,SSW,195,0.0,0.0,77,0.00,CLR,,0.00,WeatherDisplay:10.37,2013-06-15 03:51:00,
2013-06-14 23:56:00,65.8,56.9,30.01,SSW,195,0.0,0.0,73,0.00,CLR,,0.00,WeatherDisplay:10.37,2013-06-15 03:56:00,